Parrish, FL

2:05 PM EDT on August 29, 2016 (GMT -0400)
| | Change Station

Elev -9999 ft 0.00 °N, 0.00 °E | Updated

Thunderstorm
Thunderstorm
82 °F
Feels Like 90 °F
N
11
Wind Variable Wind from East
Gusts mph

Today
High -- | Low -- °F
--% Chance of Precip.
Yesterday
High -- | Low -- °F
Precip. -- in
Pressure 29.89 in
Visibility 10.0 miles
Clouds Mostly Cloudy 3900 ft
Mostly Cloudy 5500 ft
Heat Index 90 °F
Dew Point 75 °F
Humidity 65%
Rainfall --
Snow Depth Not available.
7:07 AM 7:52 PM
Waning Crescent, 7% visible
METAR KSRQ 291753Z VRB06KT 10SM BKN039 BKN055 33/23 A2989 RMK AO2 LTG DSNT N AND NW SLP122 T03330228 10339 20267 58011
Pressure 29.89 in
Visibility 10.0 miles
Clouds Mostly Cloudy 3900 ft
Mostly Cloudy 5500 ft
Heat Index 90 °F
Dew Point 75 °F
Humidity 65%
Rainfall --
Snow Depth Not available.
7:07 AM 7:52 PM
Waning Crescent, 7% visible
METAR KSRQ 291753Z VRB06KT 10SM BKN039 BKN055 33/23 A2989 RMK AO2 LTG DSNT N AND NW SLP122 T03330228 10339 20267 58011
Tropical Depression Nine was centered about 170 miles west-southwest of Key West, Florida, as of late Monday morning. The depression may struggle a bit in the southern Gulf of Mexico before finally making a Gulf Coast landfall later this week with soaking rain and gusty winds.

This latest system was designated a tropical depression Sunday after a Hurricane Hunter reconnaissance mission finally found a sufficiently organized low-pressure center with collocated shower and thunderstorm activity.

10-Day Weather Forecast

Almanac

Astronomy

Aug. 29, 2016 Rise Set
Actual Time
Civil Twilight
Nautical Twilight
Astronomical Twilight
Moon
Length of Visible Light
Length of Day
Tomorrow will be .
, % of the Moon is Illuminated

Today's Extremes

State Highs State Lows

Community

WunderPhotos

Upload Photos

1,935,685 photos uploaded!

WunderBlog® & News

Nearby

Air Quality

  Air Quality AQ Index Pollutant
Not available.

Snow Depth

Station Depth Elevation

Earthquake Activity

City Distance Mag. Time & Date
Minimum magnitude displayed is 2.5.

Coastal Water Temperatures

Place Temperature

Stations

Nearby Weather Stations

Station Location Temp. Windchill Dew Point Humidity Wind Precip. Elev Updated Type
                   

Watches & Warnings

There are currently no watches in effect.